Flight Track Log - Related Links

Times and Time Zones

All times are in EDT time to prevent confusion due to time zone crossing. See the N650SG flight status page for this flight to view local times or setup timezone preferences in your user account.

Time Position Orientation Groundspeed Altitude Reporting Facility
EDT Latitude Longitude Course Direction KTS MPH feet Rate Location/Type
Thu 10:19:34 AM 39.2833 -76.3667 169° South 227 261 1,300  Level Potomac TRACON
Thu 10:20:35 AM 39.2167 -76.3500 169° South 278 320 2,600 1,881 Climbing Potomac TRACON
Thu 10:21:48 AM 39.1322 -76.3061 158° South 291 335 5,500 2,328 Climbing Washington Center
Thu 10:22:49 AM 39.1389 -76.2044 85° East 321 369 7,800 2,281 Climbing Washington Center
Thu 10:23:49 AM 39.1542 -76.1028 79° East 326 375 10,100 2,331 Climbing Washington Center
Thu 10:24:50 AM 39.1711 -75.9931 79° East 321 369 12,500 1,966 Climbing Washington Center
Thu 10:25:48 AM 39.1944 -75.8808 75° East 316 364 14,000 1,361 Climbing Washington Center
Thu 10:26:49 AM 39.2611 -75.7900 47° Northeast 321 369 15,200 1,180 Climbing Washington Center
Thu 10:27:50 AM 39.3364 -75.6961 44° Northeast 344 396 16,400 1,191 Climbing Washington Center
Thu 10:29:00 AM 39.4281 -75.5781 45° Northeast 368 423 17,800 1,145 Climbing Washington Center
Thu 10:30:01 AM 39.5008 -75.4814 46° Northeast 378 435 18,900 1,140 Climbing Washington Center
Thu 10:31:01 AM 39.5781 -75.3814 45° Northeast 383 441 20,100 1,271 Climbing Washington Center
Thu 10:32:51 AM 39.7222 -75.1864 46° Northeast 377 434 22,500 1,094 Climbing New York Center
Thu 10:33:51 AM 39.7817 -75.1036 47° Northeast 391 450 23,200 900 Climbing New York Center
Thu 10:34:51 AM 39.8778 -74.9825 44° Northeast 391 450 24,300 750 Climbing New York Center
Thu 10:35:51 AM 39.9669 -74.8769 42° Northeast 400 460 24,700 350 Climbing New York Center
Thu 10:36:51 AM 40.0517 -74.7789 42° Northeast 412 474 25,000 150 Climbing New York Center
Thu 10:37:51 AM 40.1408 -74.6700 43° Northeast 417 480 25,000  Level New York Center
Thu 10:38:51 AM 40.2319 -74.5581 43° Northeast 429 494 25,000  Level New York Center
Thu 10:39:51 AM 40.3125 -74.4564 44° Northeast 436 502 25,000  Level New York Center
Thu 10:40:51 AM 40.4033 -74.3414 44° Northeast 436 502 25,000  Level New York Center
Thu 10:41:51 AM 40.4942 -74.2314 43° Northeast 436 502 25,000  Level New York Center
Thu 10:44:49 AM 40.8158 -74.0169 27° Northeast 448 516 25,000  Level Boston Center
Thu 10:45:49 AM 40.9314 -73.9567 22° Northeast 448 516 25,000  Level Boston Center
Thu 10:46:46 AM 41.0489 -73.8933 22° Northeast 448 516 25,000  Level Boston Center
Thu 10:47:48 AM 41.1683 -73.8353 20° North 454 522 25,000  Level Boston Center
Thu 10:48:48 AM 41.2878 -73.7856 17° North 454 522 25,000 -446 Level Boston Center
Thu 10:49:49 AM 41.4131 -73.7769 North 445 512 24,100 -1,636 Descending Boston Center
Thu 10:50:49 AM 41.5317 -73.7878 356° North 438 504 21,700 -2,850 Descending Boston Center
Thu 10:51:49 AM 41.6419 -73.7903 359° North 408 470 18,400 -3,277 Descending Boston Center
Thu 10:52:48 AM 41.7650 -73.7928 359° North 401 461 15,200 -2,420 Descending Boston Center
Thu 10:53:48 AM 41.8631 -73.7919 360° North 394 453 13,600 -2,044 Descending Boston Center
Thu 10:54:19 AM 41.9233 -73.7933 359° North 382 440 12,100 -2,164 Descending Boston Center
Thu 10:54:49 AM 41.9775 -73.7944 359° North 382 440 11,400 -835 Descending Boston Center
Thu 10:55:38 AM 42.0631 -73.7964 359° North 376 433 11,000 -220 Descending Boston Center
Thu 10:56:38 AM 42.1692 -73.7986 359° North 364 419 11,000 -158 Level Boston Center
Thu 10:57:32 AM 42.2567 -73.8006 359° North 365 420 10,700 -1,041 Descending Boston Center
Thu 10:58:39 AM 42.3650 -73.8031 359° North 329 379 8,900 -1,644 Descending Boston Center
Thu 10:59:47 AM 42.4653 -73.8022 360° North 319 367 7,000 -884 Descending Boston Center
Thu 11:00:48 AM 42.5464 -73.8042 359° North 302 348 7,000 -148 Level Boston Center
Thu 11:01:49 AM 42.6339 -73.8031 North 300 345 6,700 -1,041 Descending Boston Center
Thu 11:02:49 AM 42.7111 -73.8078 357° North 285 328 4,900 -1,373 Descending Boston Center
Thu 11:03:47 AM 42.7819 -73.8064 North 287 330 4,000 -610 Descending Boston Center
Thu 11:04:47 AM 42.8528 -73.8164 354° North 267 307 3,700 -545 Descending Boston Center
Thu 11:05:48 AM 42.9131 -73.8292 351° North 233 268 2,900 -738 Descending Boston Center
Thu 11:06:49 AM 42.9817 -73.8336 357° North 228 262 2,200 -450 Descending Boston Center
Thu 11:07:48 AM 43.0300 -73.7919 32° Northeast 197 227 2,000 -202 Descending Boston Center
Thu 11:08:48 AM 43.0678 -73.7731 20° North 175 201 1,800 -200 Descending Boston Center
Thu 11:10:00 AM 43.0500 -73.8500 255° West  Level FlightAware Approximate
Thu 11:17:00 AM 43.0507 -73.8616 255° West  Level Estimated
Thu 11:18:00 AM 43.0507 -73.8616 255° West  Level Estimated
Thu 11:19:00 AM 43.0507 -73.8616 255° West  Level Estimated
Thu 11:20:00 AM 43.0507 -73.8616 255° West  Level Estimated
Thu 11:21:00 AM 43.0507 -73.8616 255° West  Level Estimated
Thu 11:22:00 AM 43.0507 -73.8616 255° West  Level Estimated
Thu 11:23:00 AM 43.0507 -73.8616 255° West  Level Estimated
Thu 11:24:00 AM 43.0507 -73.8616 255° West  Level Estimated

Login

Don't have an account? Register now (free) for customized features, flight alerts, and more!